| time (UTC) | temp C | wind direction | speed KPH | gust KPH | rain 1hr cm | rain 24hr cm | rain mn cm | humidity % | barometer mb |
| 20260906214507 | 25 | 307 | 6.4 | 19.3 | 0.00 | 0.00 | 0.00 | 39 | 1025.0 |
| 20260906213009 | 26 | 217 | 1.6 | 12.9 | 0.00 | 0.00 | 0.00 | 41 | 1025.2 |
| 20260906211512 | 26 | 358 | 4.8 | 19.3 | 0.00 | 0.00 | 0.00 | 42 | 1025.3 |
| 20260906210014 | 26 | 66 | 8.0 | 17.7 | 0.00 | 0.00 | 0.00 | 41 | 1025.3 |
| 20260906204512 | 28 | 101 | 1.6 | 9.7 | 0.00 | 0.00 | 0.00 | 40 | 1025.5 |
| 20260906203012 | 28 | 224 | 1.6 | 8.0 | 0.00 | 0.03 | 0.00 | 39 | 1025.7 |
| 20260906201515 | 28 | 167 | 3.2 | 11.3 | 0.00 | 0.03 | 0.00 | 39 | 1025.7 |
| 20260906200014 | 28 | 97 | 3.2 | 9.7 | 0.00 | 0.03 | 0.00 | 40 | 1025.8 |
| 20260906194517 | 28 | 201 | 3.2 | 9.7 | 0.00 | 0.03 | 0.00 | 40 | 1026.0 |
| 20260906193015 | 27 | 132 | 4.8 | 11.3 | 0.00 | 0.03 | 0.00 | 40 | 1026.2 |
| 20260906191513 | 27 | 89 | 4.8 | 12.9 | 0.00 | 0.03 | 0.00 | 40 | 1026.5 |
| 20260906190017 | 27 | 129 | 3.2 | 6.4 | 0.00 | 0.03 | 0.00 | 40 | 1026.6 |
| 20260906184518 | 27 | 142 | 3.2 | 8.0 | 0.00 | 0.03 | 0.00 | 38 | 1026.9 |
| 20260906183018 | 27 | 86 | 3.2 | 9.7 | 0.00 | 0.03 | 0.00 | 40 | 1027.0 |
| 20260906181518 | 27 | 127 | 3.2 | 11.3 | 0.00 | 0.03 | 0.00 | 39 | 1027.2 |
| 20260906180012 | 26 | 124 | 1.6 | 8.0 | 0.00 | 0.03 | 0.00 | 40 | 1027.4 |
| 20260906174523 | 26 | 83 | 3.2 | 4.8 | 0.00 | 0.03 | 0.00 | 40 | 1027.8 |
| 20260906173018 | 25 | 96 | 1.6 | 4.8 | 0.00 | 0.03 | 0.00 | 39 | 1027.9 |
| 20260906171521 | 24 | 132 | 1.6 | 4.8 | 0.00 | 0.03 | 0.00 | 41 | 1028.2 |
| 20260906170024 | 24 | 125 | 1.6 | 4.8 | 0.00 | 0.03 | 0.00 | 40 | 1028.2 |
| 20260906164519 | 25 | 164 | 1.6 | 6.4 | 0.00 | 0.03 | 0.00 | 40 | 1028.2 |
| 20260906163026 | 23 | 122 | 3.2 | 6.4 | 0.00 | 0.03 | 0.00 | 40 | 1028.2 |
| 20260906161533 | 23 | 126 | 3.2 | 6.4 | 0.00 | 0.03 | 0.00 | 41 | 1028.2 |
| 20260906160027 | 23 | 197 | 3.2 | 4.8 | 0.00 | 0.03 | 0.00 | 42 | 1028.0 |
| 20260906154539 | 24 | 139 | 1.6 | 4.8 | 0.00 | 0.03 | 0.00 | 42 | 1027.9 |
| 20260906153021 | 23 | 80 | 3.2 | 4.8 | 0.00 | 0.03 | 0.00 | 39 | 1027.7 |
| 20260906151528 | 23 | 149 | 1.6 | 4.8 | 0.00 | 0.03 | 0.00 | 44 | 1027.8 |
| 20260906150026 | 23 | 139 | 0.0 | 4.8 | 0.00 | 0.03 | 0.00 | 45 | 1027.6 |
| 20260906144530 | 22 | 219 | 0.0 | 1.6 | 0.00 | 0.03 | 0.00 | 51 | 1027.6 |
| 20260906143027 | 21 | 221 | 0.0 | 1.6 | 0.00 | 0.03 | 0.00 | 56 | 1027.5 |
| 20260906141522 | 20 | 221 | 0.0 | 1.6 | 0.00 | 0.03 | 0.00 | 59 | 1027.4 |
| 20260906140034 | 18 | 219 | 1.6 | 3.2 | 0.00 | 0.03 | 0.00 | 59 | 1027.2 |
| 20260906134507 | 17 | 236 | 3.2 | 8.0 | 0.00 | 0.03 | 0.00 | 61 | 1027.2 |
| 20260906133022 | 17 | 243 | 3.2 | 4.8 | 0.00 | 0.03 | 0.00 | 63 | 1027.2 |
| 20260906131518 | 16 | 238 | 1.6 | 6.4 | 0.00 | 0.03 | 0.00 | 64 | 1027.1 |
| 20260906130043 | 15 | 243 | 3.2 | 4.8 | 0.00 | 0.03 | 0.00 | 66 | 1027.1 |
| 20260906124530 | 15 | 233 | 0.0 | 4.8 | 0.00 | 0.03 | 0.00 | 68 | 1027.1 |
| 20260906123012 | 15 | 244 | 1.6 | 8.0 | 0.00 | 0.03 | 0.00 | 66 | 1027.0 |
| 20260906121514 | 15 | 242 | 1.6 | 6.4 | 0.00 | 0.03 | 0.00 | 65 | 1026.8 |
| 20260906120024 | 15 | 239 | 1.6 | 4.8 | 0.00 | 0.03 | 0.00 | 65 | 1026.7 |
| 20260906114531 | 15 | 238 | 0.0 | 6.4 | 0.00 | 0.03 | 0.00 | 67 | 1026.7 |
| 20260906113033 | 16 | 248 | 0.0 | 6.4 | 0.00 | 0.03 | 0.00 | 65 | 1026.7 |
| 20260906111515 | 16 | 243 | 1.6 | 9.7 | 0.00 | 0.03 | 0.00 | 64 | 1026.6 |
| 20260906110020 | 16 | 236 | 1.6 | 4.8 | 0.00 | 0.03 | 0.00 | 62 | 1026.5 |
| 20260906104538 | 16 | 238 | 3.2 | 6.4 | 0.00 | 0.03 | 0.00 | 62 | 1026.6 |
| 20260906103041 | 16 | 235 | 3.2 | 6.4 | 0.00 | 0.03 | 0.00 | 62 | 1026.7 |
| 20260906101535 | 16 | 241 | 3.2 | 6.4 | 0.00 | 0.03 | 0.00 | 64 | 1026.8 |
| 20260906100025 | 16 | 243 | 0.0 | 3.2 | 0.00 | 0.03 | 0.00 | 67 | 1026.9 |
| 20260906094531 | 16 | 238 | 1.6 | 3.2 | 0.00 | 0.03 | 0.00 | 64 | 1027.0 |
| 20260906093037 | 16 | 233 | 1.6 | 4.8 | 0.00 | 0.03 | 0.00 | 61 | 1026.8 |
| 20260906091536 | 17 | 243 | 1.6 | 4.8 | 0.00 | 0.03 | 0.00 | 62 | 1026.6 |
| 20260906090035 | 16 | 233 | 1.6 | 4.8 | 0.00 | 0.03 | 0.00 | 62 | 1026.6 |
| 20260906084521 | 16 | 240 | 1.6 | 4.8 | 0.00 | 0.03 | 0.00 | 63 | 1026.6 |
| 20260906083028 | 16 | 242 | 1.6 | 4.8 | 0.00 | 0.03 | 0.00 | 62 | 1026.6 |
| 20260906081529 | 16 | 239 | 1.6 | 4.8 | 0.00 | 0.03 | 0.00 | 64 | 1026.6 |
| 20260906080029 | 15 | 247 | 0.0 | 1.6 | 0.00 | 0.03 | 0.00 | 69 | 1026.7 |
| 20260906074548 | 15 | 236 | 0.0 | 3.2 | 0.00 | 0.03 | 0.00 | 68 | 1026.7 |
| 20260906073024 | 15 | 222 | 0.0 | 1.6 | 0.00 | 0.03 | 0.00 | 71 | 1026.8 |
| 20260906071505 | 16 | 221 | 0.0 | 3.2 | 0.00 | 0.03 | 0.00 | 68 | 1026.8 |
| 20260906070018 | 15 | 247 | 0.0 | 1.6 | 0.00 | 0.03 | 0.00 | 67 | 1026.7 |
| 20260906064508 | 15 | 245 | 0.0 | 3.2 | 0.00 | 0.03 | 0.00 | 69 | 1027.0 |
| 20260906063028 | 16 | 250 | 0.0 | 3.2 | 0.00 | 0.03 | 0.00 | 66 | 1027.0 |
| 20260906061527 | 17 | 318 | 0.0 | 3.2 | 0.00 | 0.03 | 0.00 | 65 | 1026.9 |
| 20260906060004 | 18 | 323 | 0.0 | 3.2 | 0.00 | 0.03 | 0.00 | 56 | 1026.9 |
| 20260906054508 | 18 | 251 | 0.0 | 3.2 | 0.00 | 0.03 | 0.03 | 57 | 1026.7 |
| 20260906053012 | 17 | 262 | 0.0 | 8.0 | 0.00 | 0.03 | 0.03 | 59 | 1026.7 |
| 20260906051531 | 17 | 235 | 0.0 | 3.2 | 0.00 | 0.03 | 0.03 | 63 | 1026.8 |
| 20260906050035 | 17 | 231 | 1.6 | 4.8 | 0.00 | 0.03 | 0.03 | 63 | 1027.0 |
| 20260906044504 | 17 | 237 | 1.6 | 4.8 | 0.00 | 0.03 | 0.03 | 65 | 1027.1 |
| 20260906043013 | 17 | 236 | 0.0 | 4.8 | 0.00 | 0.03 | 0.03 | 65 | 1027.2 |
| 20260906041516 | 17 | 233 | 1.6 | 4.8 | 0.00 | 0.03 | 0.03 | 65 | 1027.2 |
| 20260906040040 | 17 | 243 | 1.6 | 6.4 | 0.00 | 0.03 | 0.03 | 62 | 1027.3 |
| 20260906034545 | 17 | 238 | 1.6 | 6.4 | 0.00 | 0.03 | 0.03 | 61 | 1027.5 |
| 20260906033006 | 17 | 233 | 1.6 | 3.2 | 0.00 | 0.03 | 0.03 | 62 | 1027.6 |
| 20260906031545 | 17 | 240 | 1.6 | 4.8 | 0.00 | 0.03 | 0.03 | 61 | 1027.4 |
| 20260906030018 | 17 | 240 | 1.6 | 3.2 | 0.00 | 0.03 | 0.03 | 61 | 1027.2 |
| 20260906024548 | 17 | 245 | 0.0 | 4.8 | 0.00 | 0.03 | 0.03 | 61 | 1027.0 |
| 20260906023030 | 18 | 229 | 0.0 | 6.4 | 0.00 | 0.03 | 0.03 | 58 | 1026.8 |
| 20260906021510 | 18 | 241 | 1.6 | 8.0 | 0.00 | 0.03 | 0.03 | 57 | 1026.2 |
| 20260906020015 | 18 | 229 | 1.6 | 8.0 | 0.00 | 0.03 | 0.03 | 59 | 1026.0 |
| 20260906014524 | 18 | 242 | 3.2 | 9.7 | 0.00 | 0.03 | 0.03 | 57 | 1026.1 |
| 20260906013028 | 18 | 235 | 1.6 | 6.4 | 0.00 | 0.03 | 0.03 | 59 | 1026.1 |
| 20260906011533 | 19 | 240 | 1.6 | 6.4 | 0.00 | 0.03 | 0.03 | 61 | 1026.0 |
| 20260906010026 | 19 | 238 | 1.6 | 4.8 | 0.00 | 0.03 | 0.03 | 62 | 1026.1 |
| 20260906004520 | 19 | 237 | 0.0 | 3.2 | 0.00 | 0.03 | 0.03 | 65 | 1026.3 |
| 20260906003001 | 20 | 229 | 0.0 | 4.8 | 0.00 | 0.03 | 0.03 | 67 | 1026.1 |
| 20260906001506 | 20 | 216 | 0.0 | 1.6 | 0.00 | 0.03 | 0.03 | 70 | 1026.1 |
| 20260906000012 | 21 | 237 | 0.0 | 3.2 | 0.00 | 0.03 | 0.03 | 65 | 1026.0 |
| 20260905234518 | 21 | 237 | 0.0 | 1.6 | 0.00 | 0.03 | 0.03 | 65 | 1026.1 |
| 20260905233022 | 22 | 238 | 0.0 | 1.6 | 0.00 | 0.03 | 0.03 | 66 | 1025.9 |
| 20260905231503 | 22 | 237 | 0.0 | 1.6 | 0.00 | 0.03 | 0.03 | 62 | 1025.9 |
| 20260905230015 | 20 | 237 | 0.0 | 1.6 | 0.00 | 0.03 | 0.03 | 71 | 1026.1 |
| 20260905224518 | 20 | 243 | 0.0 | 1.6 | 0.00 | 0.03 | 0.03 | 78 | 1026.2 |
| 20260905223018 | 20 | 243 | 1.6 | 3.2 | 0.00 | 0.03 | 0.03 | 79 | 1026.3 |
| 20260905221523 | 21 | 250 | 0.0 | 8.0 | 0.00 | 0.03 | 0.03 | 70 | 1026.2 |
| 20260905220004 | 21 | 239 | 0.0 | 1.6 | 0.00 | 0.03 | 0.03 | 72 | 1026.3 |